createdAt,value
2019-03-09T00:00:36.897Z,64.51
2019-03-09T00:01:36.963Z,64.10
2019-03-09T00:02:36.849Z,64.31
2019-03-09T00:03:36.864Z,64.31
2019-03-09T00:04:36.826Z,64.31
2019-03-09T00:05:36.911Z,64.41
2019-03-09T00:06:36.895Z,64.59
2019-03-09T00:07:36.818Z,64.41
2019-03-09T00:08:36.735Z,64.28
2019-03-09T00:09:36.756Z,64.28
2019-03-09T00:10:36.730Z,64.61
2019-03-09T00:11:36.714Z,64.41
2019-03-09T00:12:36.861Z,64.61
2019-03-09T00:13:36.675Z,64.61
2019-03-09T00:14:36.668Z,64.51
2019-03-09T00:15:36.716Z,64.92
2019-03-09T00:16:36.643Z,64.41
2019-03-09T00:17:36.632Z,64.69
2019-03-09T00:18:36.619Z,64.82
2019-03-09T00:19:36.607Z,64.79
2019-03-09T00:20:36.615Z,64.79
2019-03-09T00:21:36.616Z,64.92
2019-03-09T00:22:36.583Z,64.69
2019-03-09T00:23:36.577Z,64.92
2019-03-09T00:24:36.556Z,64.92
2019-03-09T00:25:36.593Z,64.79
2019-03-09T00:26:36.528Z,65.23
2019-03-09T00:27:36.591Z,64.72
2019-03-09T00:28:36.520Z,65.03
2019-03-09T00:29:44.096Z,64.51
2019-03-09T00:30:36.529Z,64.79
2019-03-09T00:31:36.486Z,64.69
2019-03-09T00:32:36.463Z,64.89
2019-03-09T00:33:36.455Z,65.41
2019-03-09T00:34:36.457Z,65.10
2019-03-09T00:35:46.124Z,65.54
2019-03-09T00:36:36.426Z,65.41
2019-03-09T00:37:43.951Z,65.10
2019-03-09T00:38:36.404Z,65.74
2019-03-09T00:39:36.391Z,65.81
2019-03-09T00:40:36.406Z,65.81
2019-03-09T00:41:45.406Z,65.44
2019-03-09T00:42:36.361Z,65.92
2019-03-09T00:43:36.345Z,66.22
2019-03-09T00:44:36.371Z,66.63
2019-03-09T00:45:36.323Z,66.94
2019-03-09T00:46:36.355Z,67.25
2019-03-09T00:47:36.471Z,67.56
2019-03-09T00:48:36.348Z,67.90
2019-03-09T00:49:36.283Z,68.00
2019-03-09T00:50:36.278Z,68.48
2019-03-09T00:51:36.362Z,68.82
2019-03-09T00:52:36.261Z,68.21
2019-03-09T00:53:36.236Z,68.92
2019-03-09T00:54:43.760Z,68.92
2019-03-09T00:55:36.302Z,68.51
2019-03-09T00:56:36.259Z,69.23
2019-03-09T00:57:36.212Z,69.95
2019-03-09T00:58:36.423Z,69.74
2019-03-09T00:59:36.175Z,70.46
2019-03-09T01:00:36.206Z,70.46
2019-03-09T01:01:44.975Z,71.72
2019-03-09T01:02:36.179Z,71.11
2019-03-09T01:03:36.215Z,71.11
2019-03-09T01:04:36.154Z,71.52
2019-03-09T01:05:36.246Z,71.83
2019-03-09T01:06:36.094Z,71.62
2019-03-09T01:07:36.109Z,71.72
2019-03-09T01:08:36.074Z,71.62
2019-03-09T01:09:36.070Z,72.03
2019-03-09T01:10:36.057Z,71.52
2019-03-09T01:11:36.043Z,71.52
2019-03-09T01:12:36.047Z,71.21
2019-03-09T01:13:36.020Z,70.80
2019-03-09T01:14:36.008Z,70.80
2019-03-09T01:15:36.013Z,71.11
2019-03-09T01:16:35.993Z,71.01
2019-03-09T01:17:35.992Z,71.01
2019-03-09T01:18:35.996Z,71.42
2019-03-09T01:19:35.979Z,71.52
2019-03-09T01:20:35.953Z,71.72
2019-03-09T01:21:35.962Z,71.72
2019-03-09T01:23:55.169Z,71.31
2019-03-09T01:24:55.125Z,72.44
2019-03-09T01:25:55.138Z,73.16
2019-03-09T01:26:55.102Z,72.58
2019-03-09T01:27:55.164Z,72.58
2019-03-09T01:28:55.082Z,72.27
2019-03-09T01:30:04.789Z,72.65
2019-03-09T01:30:55.071Z,72.03
2019-03-09T01:31:55.051Z,71.62
2019-03-09T01:32:55.036Z,71.01
2019-03-09T01:35:33.253Z,71.62
2019-03-09T01:36:33.183Z,71.83
2019-03-09T01:37:33.136Z,72.34
2019-03-09T01:38:33.135Z,72.58
2019-03-09T01:39:33.307Z,72.38
2019-03-09T01:40:33.045Z,72.48
2019-03-09T01:41:33.065Z,72.48
2019-03-09T01:42:33.089Z,73.50
2019-03-09T01:43:33.045Z,73.81
2019-03-09T01:44:33.148Z,74.05
2019-03-09T01:45:33.045Z,75.25
2019-03-09T01:46:33.018Z,74.36
2019-03-09T01:47:32.985Z,73.95
2019-03-09T01:48:33.109Z,74.26
2019-03-09T01:49:33.118Z,74.26
2019-03-09T01:50:32.929Z,73.74
2019-03-09T01:51:32.918Z,74.05
2019-03-09T01:52:32.904Z,73.85
2019-03-09T01:53:36.718Z,73.44
2019-03-09T01:54:32.882Z,73.74
2019-03-09T01:55:32.877Z,74.15
2019-03-09T01:56:32.869Z,74.15
2019-03-09T01:57:32.851Z,74.67
2019-03-09T01:58:32.893Z,74.98
2019-03-09T01:59:32.838Z,75.59
2019-03-09T02:00:32.822Z,76.10
2019-03-09T02:01:32.844Z,76.82
2019-03-09T02:02:32.800Z,76.86
2019-03-09T02:03:32.834Z,77.27
2019-03-09T02:05:51.743Z,77.99
2019-03-09T02:06:51.760Z,77.27
2019-03-09T02:07:51.721Z,77.37
2019-03-09T02:08:51.719Z,76.25
2019-03-09T02:09:51.723Z,76.45
2019-03-09T02:10:51.710Z,76.86
2019-03-09T02:11:51.666Z,76.35
2019-03-09T02:12:51.672Z,77.17
2019-03-09T02:13:51.673Z,76.45
2019-03-09T02:14:51.634Z,77.03
2019-03-09T02:15:51.623Z,76.14
2019-03-09T02:16:51.654Z,76.86
2019-03-09T02:17:51.603Z,75.83
2019-03-09T02:19:00.506Z,75.93
2019-03-09T02:20:00.414Z,76.10
2019-03-09T02:20:59.179Z,75.52
2019-03-09T02:21:51.573Z,75.63
2019-03-09T02:22:51.561Z,75.90
2019-03-09T02:23:51.586Z,75.52
2019-03-09T02:24:51.549Z,75.83
2019-03-09T02:25:59.089Z,75.73
2019-03-09T02:26:51.516Z,75.52
2019-03-09T02:27:51.496Z,75.18
2019-03-09T02:28:51.490Z,75.93
2019-03-09T02:29:51.497Z,76.04
2019-03-09T02:30:51.496Z,76.86
2019-03-09T02:31:51.463Z,76.86
2019-03-09T02:32:58.987Z,76.14
2019-03-09T02:33:51.432Z,76.97
2019-03-09T02:34:51.448Z,76.35
2019-03-09T02:35:51.441Z,77.17
2019-03-09T02:36:51.407Z,77.17
2019-03-09T02:37:51.401Z,78.71
2019-03-09T02:38:51.407Z,79.12
2019-03-09T02:39:51.396Z,79.43
2019-03-09T02:40:51.393Z,79.77
2019-03-09T02:41:51.377Z,79.98
2019-03-09T02:42:51.547Z,80.70
2019-03-09T02:43:51.337Z,81.73
2019-03-09T02:44:51.319Z,81.42
2019-03-09T02:45:51.333Z,81.83
2019-03-09T02:46:51.302Z,81.35
2019-03-09T02:47:51.296Z,82.39
2019-03-09T02:48:51.376Z,82.07
2019-03-09T02:49:51.273Z,81.52
2019-03-09T02:50:51.278Z,81.11
2019-03-09T02:51:51.290Z,81.15
2019-03-09T02:52:51.475Z,81.05
2019-03-09T02:53:51.248Z,80.70
2019-03-09T02:54:51.251Z,80.08
2019-03-09T02:55:51.263Z,79.77
2019-03-09T02:56:51.312Z,79.26
2019-03-09T02:57:51.196Z,79.26
2019-03-09T02:58:51.221Z,78.44
2019-03-09T02:59:51.197Z,78.64
2019-03-09T03:00:51.360Z,78.92
2019-03-09T03:01:51.151Z,78.81
2019-03-09T03:02:51.196Z,78.75
2019-03-09T03:03:51.263Z,79.22
2019-03-09T03:04:51.119Z,78.20
2019-03-09T03:05:51.346Z,79.22
2019-03-09T03:06:51.157Z,78.23
2019-03-09T03:07:51.094Z,78.20
2019-03-09T03:08:51.092Z,79.12
2019-03-09T03:09:51.083Z,77.99
2019-03-09T03:10:51.152Z,77.99
2019-03-09T03:11:51.316Z,77.78
2019-03-09T03:12:51.083Z,77.37
2019-03-09T03:13:51.097Z,77.68
2019-03-09T03:14:51.120Z,78.20
2019-03-09T03:15:51.053Z,78.20
2019-03-09T03:16:51.107Z,78.09
2019-03-09T03:17:51.053Z,78.20
2019-03-09T03:18:51.020Z,78.71
2019-03-09T03:19:50.993Z,78.61
2019-03-09T03:20:51.240Z,78.40
2019-03-09T03:21:50.939Z,79.02
2019-03-09T03:22:50.943Z,79.43
2019-03-09T03:23:50.960Z,79.94
2019-03-09T03:24:50.887Z,79.63
2019-03-09T03:25:50.905Z,80.35
2019-03-09T03:26:59.434Z,80.87
2019-03-09T03:27:59.424Z,81.38
2019-03-09T03:28:50.863Z,81.28
2019-03-09T03:29:50.838Z,81.42
2019-03-09T03:30:50.855Z,82.20
2019-03-09T03:31:50.812Z,81.90
2019-03-09T03:32:50.855Z,82.20
2019-03-09T03:33:50.802Z,82.34
2019-03-09T03:34:50.817Z,81.79
2019-03-09T03:35:50.832Z,81.69
2019-03-09T03:36:50.811Z,81.38
2019-03-09T03:37:50.753Z,81.34
2019-03-09T03:38:50.742Z,80.83
2019-03-09T03:39:50.754Z,80.93
2019-03-09T03:40:50.748Z,81.34
2019-03-09T03:41:50.710Z,81.34
2019-03-09T03:42:50.694Z,81.86
2019-03-09T03:43:50.691Z,82.06
2019-03-09T03:44:50.697Z,81.96
2019-03-09T03:45:50.707Z,82.68
2019-03-09T03:46:50.673Z,82.78
2019-03-09T03:47:50.668Z,83.09
2019-03-09T03:48:50.634Z,84.12
2019-03-09T03:49:50.675Z,84.63
2019-03-09T03:50:50.629Z,84.94
2019-03-09T03:51:50.601Z,85.14
2019-03-09T03:52:50.590Z,86.38
2019-03-09T03:53:50.586Z,86.21
2019-03-09T03:54:50.581Z,86.21
2019-03-09T03:55:50.578Z,86.11
2019-03-09T03:56:59.389Z,86.52
2019-03-09T03:57:50.537Z,86.83
2019-03-09T03:58:50.534Z,86.52
2019-03-09T03:59:50.521Z,87.13
2019-03-09T04:00:50.536Z,87.04
2019-03-09T04:01:50.520Z,86.72
2019-03-09T04:02:50.508Z,86.62
2019-03-09T04:03:50.476Z,86.48
2019-03-09T04:04:50.521Z,87.04
2019-03-09T04:05:50.480Z,86.52
2019-03-09T04:06:50.448Z,86.27
2019-03-09T04:07:50.443Z,86.72
2019-03-09T04:08:50.424Z,86.27
2019-03-09T04:09:50.535Z,86.58
2019-03-09T04:10:50.520Z,85.14
2019-03-09T04:11:50.411Z,85.35
2019-03-09T04:12:57.923Z,85.14
2019-03-09T04:13:50.370Z,84.84
2019-03-09T04:14:50.358Z,84.90
2019-03-09T04:15:50.347Z,84.69
2019-03-09T04:16:50.351Z,84.18
2019-03-09T04:17:50.355Z,85.25
2019-03-09T04:18:50.339Z,84.90
2019-03-09T04:19:50.386Z,85.11
2019-03-09T04:20:50.293Z,84.63
2019-03-09T04:21:50.345Z,84.69
2019-03-09T04:22:50.286Z,84.59
2019-03-09T04:23:50.258Z,84.59
2019-03-09T04:24:50.253Z,84.59
2019-03-09T04:25:50.258Z,84.59
2019-03-09T04:26:50.223Z,83.77
2019-03-09T04:27:50.249Z,84.08
2019-03-09T04:28:50.232Z,83.46
2019-03-09T04:29:50.198Z,84.25
2019-03-09T04:30:50.193Z,83.87
2019-03-09T04:32:00.126Z,83.98
2019-03-09T04:32:50.187Z,83.98
2019-03-09T04:33:50.169Z,84.59
2019-03-09T04:34:50.140Z,84.90
2019-03-09T04:35:50.175Z,85.31
2019-03-09T04:36:50.122Z,85.31
2019-03-09T04:37:50.187Z,85.11
2019-03-09T04:38:50.100Z,85.62
2019-03-09T04:39:50.158Z,85.31
2019-03-09T04:40:50.104Z,85.21
2019-03-09T04:41:50.072Z,85.62
2019-03-09T04:42:50.091Z,85.11
2019-03-09T04:43:50.121Z,85.11
2019-03-09T04:44:50.036Z,85.31
2019-03-09T04:45:50.026Z,84.59
2019-03-09T04:46:50.005Z,85.31
2019-03-09T04:47:50.065Z,85.11
2019-03-09T04:48:49.996Z,85.21
2019-03-09T04:49:57.577Z,85.00
2019-03-09T04:50:50.105Z,85.11
2019-03-09T04:51:50.032Z,84.59
2019-03-09T04:52:49.955Z,84.18
2019-03-09T04:56:40.350Z,85.06
2019-03-09T04:58:50.499Z,84.66
2019-03-09T05:01:17.488Z,84.76
2019-03-09T05:02:25.171Z,85.21
2019-03-09T05:03:26.335Z,85.89
2019-03-09T05:04:17.444Z,85.93
2019-03-09T05:05:17.458Z,85.89
2019-03-09T05:06:17.419Z,86.24
2019-03-09T05:07:17.402Z,86.13
2019-03-09T05:08:17.400Z,85.38
2019-03-09T05:09:17.423Z,84.96
2019-03-09T05:10:17.401Z,84.86
2019-03-09T05:11:17.360Z,85.17
2019-03-09T05:12:17.356Z,84.86
2019-03-09T05:13:17.345Z,85.06
2019-03-09T05:14:17.384Z,84.82
2019-03-09T05:15:17.317Z,84.86
2019-03-09T05:16:17.311Z,84.55
2019-03-09T05:17:17.297Z,84.45
2019-03-09T05:18:24.874Z,84.55
2019-03-09T05:19:17.306Z,84.52
2019-03-09T05:20:17.287Z,84.72
2019-03-09T05:21:24.947Z,84.72
2019-03-09T05:22:17.298Z,84.52
2019-03-09T05:23:24.824Z,84.20
2019-03-09T05:24:17.296Z,84.20
2019-03-09T05:25:17.228Z,84.20
2019-03-09T05:26:17.206Z,84.00
2019-03-09T05:27:17.188Z,83.18
2019-03-09T05:28:17.178Z,84.31
2019-03-09T05:29:17.171Z,84.00
2019-03-09T05:30:17.183Z,84.20
2019-03-09T05:31:17.144Z,84.00
2019-03-09T05:32:17.135Z,84.20
2019-03-09T05:33:17.123Z,84.41
2019-03-09T05:34:17.114Z,84.00
2019-03-09T05:35:17.111Z,83.18
2019-03-09T05:36:17.115Z,83.49
2019-03-09T05:37:17.080Z,83.49
2019-03-09T05:38:17.073Z,83.07
2019-03-09T05:39:17.058Z,83.28
2019-03-09T05:40:17.050Z,83.14
2019-03-09T05:41:17.059Z,82.93
2019-03-09T05:42:17.029Z,82.93
2019-03-09T05:43:17.020Z,82.93
2019-03-09T05:44:17.029Z,83.04
2019-03-09T05:45:16.995Z,83.04
2019-03-09T05:46:17.006Z,83.14
2019-03-09T05:47:16.984Z,83.04
2019-03-09T05:48:16.962Z,82.93
2019-03-09T05:49:16.956Z,82.73
2019-03-09T05:50:16.940Z,82.73
2019-03-09T05:51:16.932Z,82.93
2019-03-09T05:52:16.935Z,82.63
2019-03-09T05:53:16.922Z,82.90
2019-03-09T05:54:16.896Z,82.42
2019-03-09T05:55:16.906Z,82.83
2019-03-09T05:56:16.877Z,82.39
2019-03-09T05:57:16.908Z,82.73
2019-03-09T05:58:16.857Z,82.83
2019-03-09T05:59:16.844Z,82.83
2019-03-09T06:00:16.839Z,82.59
2019-03-09T06:01:16.831Z,82.08
2019-03-09T06:02:16.830Z,82.01
2019-03-09T06:03:16.798Z,81.91
2019-03-09T06:04:16.791Z,81.77
2019-03-09T06:05:16.777Z,82.12
2019-03-09T06:06:16.772Z,82.01
2019-03-09T06:07:16.787Z,82.73
2019-03-09T06:08:16.746Z,82.01
2019-03-09T06:09:16.736Z,81.77
2019-03-09T06:10:16.726Z,81.71
2019-03-09T06:11:16.714Z,81.91
2019-03-09T06:12:16.722Z,82.08
2019-03-09T06:13:16.700Z,81.98
2019-03-09T06:14:16.684Z,82.01
2019-03-09T06:15:16.679Z,82.42
2019-03-09T06:16:16.661Z,82.42
2019-03-09T06:17:16.670Z,82.83
2019-03-09T06:18:16.637Z,82.79
2019-03-09T06:19:16.628Z,81.91
2019-03-09T06:20:16.613Z,82.22
2019-03-09T06:21:16.607Z,82.12
2019-03-09T06:22:16.654Z,82.12
2019-03-09T06:23:16.596Z,82.12
2019-03-09T06:24:16.575Z,82.12
2019-03-09T06:25:16.570Z,82.22
2019-03-09T06:26:16.551Z,82.01
2019-03-09T06:27:16.556Z,81.81
2019-03-09T06:28:16.555Z,82.12
2019-03-09T06:29:16.524Z,82.22
2019-03-09T06:30:16.516Z,81.67
2019-03-09T06:31:16.514Z,81.77
2019-03-09T06:32:16.516Z,81.91
2019-03-09T06:33:16.479Z,82.01
2019-03-09T06:34:16.460Z,82.32
2019-03-09T06:35:16.466Z,81.40
2019-03-09T06:36:16.438Z,81.46
2019-03-09T06:37:16.432Z,81.77
2019-03-09T06:38:16.437Z,81.46
2019-03-09T06:39:16.415Z,81.77
2019-03-09T06:40:16.399Z,81.36
2019-03-09T06:41:16.433Z,81.15
2019-03-09T06:42:16.374Z,81.26
2019-03-09T06:43:16.387Z,81.15
2019-03-09T06:44:16.376Z,81.15
2019-03-09T06:45:16.372Z,81.26
2019-03-09T06:46:16.342Z,81.15
2019-03-09T06:47:16.350Z,81.43
2019-03-09T06:48:16.312Z,81.22
2019-03-09T06:49:16.302Z,80.91
2019-03-09T06:50:16.289Z,80.91
2019-03-09T06:51:16.276Z,80.09
2019-03-09T06:52:16.276Z,80.81
2019-03-09T06:53:24.958Z,80.23
2019-03-09T06:54:23.818Z,80.51
2019-03-09T06:55:16.244Z,80.30
2019-03-09T06:56:16.222Z,80.81
2019-03-09T06:57:16.214Z,80.19
2019-03-09T06:58:16.254Z,80.19
2019-03-09T06:59:16.193Z,80.16
2019-03-09T07:00:16.187Z,80.40
2019-03-09T07:01:16.172Z,79.89
2019-03-09T07:02:16.185Z,79.99
2019-03-09T07:03:16.168Z,80.09
2019-03-09T07:04:16.143Z,80.19
2019-03-09T07:05:16.176Z,79.68
2019-03-09T07:06:16.126Z,79.68
2019-03-09T07:07:16.110Z,79.79
2019-03-09T07:08:16.109Z,79.38
2019-03-09T07:09:16.099Z,79.85
2019-03-09T07:10:16.101Z,79.75
2019-03-09T07:11:16.069Z,79.64
2019-03-09T07:12:16.063Z,79.24
2019-03-09T07:13:16.091Z,79.34
2019-03-09T07:14:16.028Z,79.24
2019-03-09T07:15:16.028Z,79.44
2019-03-09T07:16:16.023Z,79.44
2019-03-09T07:17:16.003Z,79.34
2019-03-09T07:18:16.005Z,79.03
2019-03-09T07:19:15.978Z,79.44
2019-03-09T07:20:15.966Z,79.13
2019-03-09T07:21:15.962Z,79.13
2019-03-09T07:22:15.945Z,79.54
2019-03-09T07:23:15.954Z,79.44
2019-03-09T07:24:15.938Z,79.24
2019-03-09T07:25:15.916Z,79.64
2019-03-09T07:26:15.903Z,79.44
2019-03-09T07:27:15.897Z,79.13
2019-03-09T07:28:15.926Z,79.13
2019-03-09T07:29:15.891Z,79.44
2019-03-09T07:30:15.863Z,79.34
2019-03-09T07:31:15.846Z,79.24
2019-03-09T07:32:15.834Z,79.20
2019-03-09T07:33:15.914Z,78.72
2019-03-09T07:34:15.813Z,79.44
2019-03-09T07:35:15.825Z,79.13
2019-03-09T07:36:15.801Z,78.52
2019-03-09T07:37:15.797Z,78.72
2019-03-09T07:38:15.811Z,79.03
2019-03-09T07:39:15.760Z,79.00
2019-03-09T07:40:15.754Z,79.00
2019-03-09T07:41:15.738Z,78.79
2019-03-09T07:42:15.728Z,78.69
2019-03-09T07:43:15.716Z,79.00
2019-03-09T07:44:15.744Z,78.89
2019-03-09T07:45:15.700Z,78.38
2019-03-09T07:46:15.683Z,78.28
2019-03-09T07:47:15.691Z,78.38
2019-03-09T07:48:15.671Z,78.17
2019-03-09T07:49:15.729Z,78.59
2019-03-09T07:50:15.646Z,78.89
2019-03-09T07:51:15.632Z,77.97
2019-03-09T07:52:15.619Z,77.94
2019-03-09T07:53:15.618Z,78.04
2019-03-09T07:54:15.612Z,77.87
2019-03-09T07:55:15.615Z,77.26
2019-03-09T07:56:15.608Z,77.83
2019-03-09T07:57:15.568Z,77.42
2019-03-09T07:58:15.557Z,77.63
2019-03-09T07:59:15.566Z,76.81
2019-03-09T08:00:15.568Z,76.81
2019-03-09T08:01:15.549Z,76.71
2019-03-09T08:02:23.168Z,76.71
2019-03-09T08:03:15.531Z,76.81
2019-03-09T08:04:15.517Z,76.61
2019-03-09T08:05:15.549Z,76.81
2019-03-09T08:06:15.505Z,76.71
2019-03-09T08:07:15.550Z,76.71
2019-03-09T08:08:15.483Z,76.61
2019-03-09T08:09:15.436Z,76.91
2019-03-09T08:10:15.507Z,76.61
2019-03-09T08:11:15.416Z,76.91
2019-03-09T08:12:15.445Z,76.20
2019-03-09T08:13:15.413Z,76.71
2019-03-09T08:14:15.382Z,76.50
2019-03-09T08:15:15.392Z,76.09
2019-03-09T08:16:15.423Z,76.30
2019-03-09T08:17:15.348Z,76.61
2019-03-09T08:18:15.336Z,76.20
2019-03-09T08:19:15.348Z,76.40
2019-03-09T08:20:15.322Z,75.45
2019-03-09T08:21:15.331Z,75.55
2019-03-09T08:22:15.297Z,75.34
2019-03-09T08:23:15.301Z,75.07
2019-03-09T08:24:15.296Z,75.04
2019-03-09T08:25:15.280Z,74.93
2019-03-09T08:26:15.347Z,75.24
2019-03-09T08:27:15.245Z,75.14
2019-03-09T08:28:16.503Z,75.14
2019-03-09T08:29:15.249Z,74.84
2019-03-09T08:30:15.223Z,74.22
2019-03-09T08:31:15.306Z,75.24
2019-03-09T08:32:15.191Z,75.04
2019-03-09T08:33:15.176Z,74.32
2019-03-09T08:34:15.212Z,75.45
2019-03-09T08:35:15.207Z,74.90
2019-03-09T08:36:15.211Z,74.80
2019-03-09T08:37:15.222Z,74.90
2019-03-09T08:38:15.173Z,74.08
2019-03-09T08:39:15.183Z,75.04
2019-03-09T08:40:15.104Z,73.98
2019-03-09T08:41:15.097Z,74.11
2019-03-09T08:42:15.125Z,74.08
2019-03-09T08:43:15.090Z,73.98
2019-03-09T08:44:15.073Z,74.02
2019-03-09T08:45:15.071Z,73.98
2019-03-09T08:46:15.046Z,73.98
2019-03-09T08:47:15.063Z,73.77
2019-03-09T08:48:15.033Z,73.68
2019-03-09T08:49:15.023Z,74.02
2019-03-09T08:50:14.999Z,73.57
2019-03-09T08:51:15.006Z,73.36
2019-03-09T08:52:15.000Z,73.71
2019-03-09T08:53:14.970Z,73.20
2019-03-09T08:54:14.968Z,73.30
2019-03-09T08:55:14.940Z,73.27
2019-03-09T08:56:14.941Z,72.99
2019-03-09T08:57:14.926Z,72.45
2019-03-09T08:58:14.948Z,72.45
2019-03-09T08:59:14.895Z,72.48
2019-03-09T09:00:14.941Z,72.34
2019-03-09T09:01:14.922Z,72.65
2019-03-09T09:02:22.448Z,72.34
2019-03-09T09:03:23.541Z,72.14
2019-03-09T09:04:14.845Z,72.55
2019-03-09T09:05:14.843Z,72.24
2019-03-09T09:06:14.825Z,72.04
2019-03-09T09:07:14.813Z,71.91
2019-03-09T09:08:14.830Z,71.80
2019-03-09T09:09:14.826Z,71.70
2019-03-09T09:10:14.796Z,71.70
2019-03-09T09:11:14.768Z,72.04
2019-03-09T09:12:14.755Z,71.73
2019-03-09T09:13:14.766Z,71.50
2019-03-09T09:14:14.746Z,71.39
2019-03-09T09:15:15.116Z,71.29
2019-03-09T09:16:14.721Z,71.70
2019-03-09T09:17:14.704Z,71.70
2019-03-09T09:18:14.739Z,71.09
2019-03-09T09:19:14.689Z,71.19
2019-03-09T09:20:14.679Z,70.47
2019-03-09T09:21:14.682Z,70.47
2019-03-09T09:22:14.645Z,71.09
2019-03-09T09:23:14.635Z,71.59
2019-03-09T09:24:14.687Z,71.50
2019-03-09T09:25:14.642Z,70.57
2019-03-09T09:26:14.617Z,70.37
2019-03-09T09:27:14.621Z,70.88
2019-03-09T09:28:14.581Z,70.57
2019-03-09T09:29:14.635Z,70.37
2019-03-09T09:30:14.561Z,70.88
2019-03-09T09:31:14.569Z,70.78
2019-03-09T09:32:14.541Z,70.88
2019-03-09T09:33:14.558Z,70.27
2019-03-09T09:34:14.539Z,70.27
2019-03-09T09:35:14.518Z,70.06
2019-03-09T09:36:14.576Z,70.27
2019-03-09T09:37:14.502Z,70.57
2019-03-09T09:38:14.477Z,70.14
2019-03-09T09:39:14.487Z,70.44
2019-03-09T09:40:14.473Z,70.27
2019-03-09T09:41:14.439Z,70.17
2019-03-09T09:42:14.436Z,70.47
2019-03-09T09:43:14.421Z,70.06
2019-03-09T09:44:14.406Z,69.76
2019-03-09T09:45:14.416Z,69.65
2019-03-09T09:46:14.387Z,70.06
2019-03-09T09:47:14.390Z,70.03
2019-03-09T09:48:14.388Z,70.37
2019-03-09T09:49:14.358Z,70.03
2019-03-09T09:50:14.377Z,69.76
2019-03-09T09:51:14.334Z,69.82
2019-03-09T09:52:14.322Z,69.32
2019-03-09T09:53:14.309Z,69.11
2019-03-09T09:54:14.301Z,69.52
2019-03-09T09:55:14.287Z,68.91
2019-03-09T09:56:14.327Z,69.11
2019-03-09T09:57:14.301Z,68.50
2019-03-09T09:58:14.258Z,68.30
2019-03-09T09:59:14.554Z,68.37
2019-03-09T10:00:14.233Z,68.57
2019-03-09T10:01:14.248Z,68.47
2019-03-09T10:02:14.212Z,67.85
2019-03-09T10:03:14.205Z,67.55
2019-03-09T10:04:14.198Z,67.76
2019-03-09T10:05:14.194Z,67.45
2019-03-09T10:06:14.188Z,67.65
2019-03-09T10:07:14.158Z,67.04
2019-03-09T10:08:14.148Z,67.76
2019-03-09T10:09:14.146Z,67.52
2019-03-09T10:10:14.179Z,67.45
2019-03-09T10:11:14.163Z,67.55
2019-03-09T10:12:14.168Z,66.63
2019-03-09T10:13:14.098Z,67.04
2019-03-09T10:14:14.082Z,67.04
2019-03-09T10:15:14.078Z,66.39
2019-03-09T10:16:14.061Z,66.30
2019-03-09T10:17:14.074Z,65.89
2019-03-09T10:18:14.041Z,65.37
2019-03-09T10:19:14.055Z,65.78
2019-03-09T10:20:14.017Z,65.17
2019-03-09T10:21:14.010Z,65.45
2019-03-09T10:22:14.019Z,65.25
2019-03-09T10:23:14.004Z,65.17
2019-03-09T10:24:13.976Z,64.73
2019-03-09T10:25:13.966Z,64.84
2019-03-09T10:26:13.965Z,63.58
2019-03-09T10:27:14.009Z,63.56
2019-03-09T10:28:13.927Z,63.24
2019-03-09T10:29:13.921Z,63.35
2019-03-09T10:30:13.912Z,62.74
2019-03-09T10:31:13.897Z,61.79
2019-03-09T10:32:13.889Z,62.33
2019-03-09T10:33:13.924Z,62.63
2019-03-09T10:34:13.869Z,62.84
2019-03-09T10:35:13.886Z,62.74
2019-03-09T10:36:13.881Z,63.38
2019-03-09T10:37:13.831Z,62.94
2019-03-09T10:38:13.845Z,63.28
2019-03-09T10:39:13.810Z,63.18
2019-03-09T10:40:13.823Z,63.38
2019-03-09T10:41:13.803Z,63.58
2019-03-09T10:42:13.806Z,63.20
2019-03-09T10:43:13.765Z,63.41
2019-03-09T10:44:13.777Z,63.51
2019-03-09T10:45:13.770Z,63.92
2019-03-09T10:46:13.733Z,64.02
2019-03-09T10:47:13.790Z,64.63
2019-03-09T10:48:13.759Z,64.02
2019-03-09T10:49:13.700Z,63.82
2019-03-09T10:50:13.695Z,63.41
2019-03-09T10:51:13.683Z,63.20
2019-03-09T10:52:21.255Z,63.31
2019-03-09T10:53:13.691Z,63.31
2019-03-09T10:54:22.574Z,63.41
2019-03-09T10:55:13.687Z,63.00
2019-03-09T10:56:13.664Z,62.90
2019-03-09T10:57:13.640Z,63.20
2019-03-09T10:58:13.642Z,63.00
2019-03-09T10:59:13.627Z,62.70
2019-03-09T11:00:13.583Z,62.49
2019-03-09T11:01:13.589Z,62.90
2019-03-09T11:02:13.589Z,62.73
2019-03-09T11:03:13.550Z,62.90
2019-03-09T11:04:13.594Z,62.82
2019-03-09T11:05:13.527Z,62.70
2019-03-09T11:06:13.518Z,62.49
2019-03-09T11:07:13.507Z,63.00
2019-03-09T11:08:13.498Z,62.90
2019-03-09T11:09:13.497Z,62.70
2019-03-09T11:10:13.491Z,62.90
2019-03-09T11:11:13.492Z,62.90
2019-03-09T11:12:13.457Z,62.90
2019-03-09T11:13:13.445Z,62.70
2019-03-09T11:14:13.432Z,62.39
2019-03-09T11:15:13.444Z,62.80
2019-03-09T11:16:13.437Z,62.39
2019-03-09T11:17:13.400Z,62.39
2019-03-09T11:18:13.389Z,62.49
2019-03-09T11:19:13.399Z,62.18
2019-03-09T11:20:13.371Z,62.29
2019-03-09T11:21:13.362Z,62.26
2019-03-09T11:22:13.350Z,62.36
2019-03-09T11:23:13.337Z,62.26
2019-03-09T11:24:13.352Z,62.05
2019-03-09T11:25:13.319Z,62.16
2019-03-09T11:26:13.303Z,61.85
2019-03-09T11:27:13.307Z,61.95
2019-03-09T11:28:13.279Z,61.85
2019-03-09T11:29:13.311Z,61.82
2019-03-09T11:30:13.302Z,61.00
2019-03-09T11:31:13.313Z,61.41
2019-03-09T11:32:13.245Z,60.60
2019-03-09T11:33:13.235Z,60.30
2019-03-09T11:34:13.219Z,59.78
2019-03-09T11:35:13.233Z,59.78
2019-03-09T11:36:13.209Z,59.58
2019-03-09T11:37:13.185Z,58.94
2019-03-09T11:38:13.202Z,58.64
2019-03-09T11:39:13.180Z,58.33
2019-03-09T11:40:13.187Z,58.53
2019-03-09T11:41:19.033Z,58.23
2019-03-09T11:42:14.130Z,58.51
2019-03-09T11:43:13.148Z,58.81
2019-03-09T11:44:13.115Z,58.28
2019-03-09T11:45:13.143Z,57.59
2019-03-09T11:46:13.093Z,53.02
2019-03-09T11:47:13.080Z,53.67
2019-03-09T11:48:13.066Z,55.99
2019-03-09T11:49:13.053Z,56.19
2019-03-09T11:50:13.118Z,55.91
2019-03-09T11:51:13.030Z,57.06
2019-03-09T11:52:20.751Z,57.46
2019-03-09T11:53:13.037Z,55.45
2019-03-09T11:54:13.028Z,52.56
2019-03-09T11:55:12.986Z,52.61
2019-03-09T11:56:13.047Z,54.28
2019-03-09T11:57:13.034Z,52.08
2019-03-09T11:58:12.958Z,53.58
2019-03-09T11:59:12.953Z,53.88
2019-03-09T12:00:12.950Z,51.55
2019-03-09T12:01:13.031Z,49.73
2019-03-09T12:02:12.923Z,46.77
2019-03-09T12:03:12.953Z,44.61
2019-03-09T12:04:12.944Z,45.38
2019-03-09T12:05:12.883Z,47.08
2019-03-09T12:06:12.872Z,47.26
2019-03-09T12:07:12.910Z,44.83
2019-03-09T12:08:12.843Z,43.30
2019-03-09T12:09:12.837Z,42.13
2019-03-09T12:10:12.821Z,39.93
2019-03-09T12:11:12.813Z,38.99
2019-03-09T12:12:12.846Z,38.49
2019-03-09T12:13:12.798Z,36.32
2019-03-09T12:14:12.814Z,37.18
2019-03-09T12:15:12.767Z,42.21
2019-03-09T12:16:12.758Z,45.54
2019-03-09T12:17:13.055Z,46.13
2019-03-09T12:18:12.736Z,42.30
2019-03-09T12:19:12.728Z,44.07
2019-03-09T12:20:12.717Z,41.53
2019-03-09T12:21:12.715Z,38.63
2019-03-09T12:22:12.711Z,35.53
2019-03-09T12:23:12.682Z,33.48
2019-03-09T12:24:16.477Z,33.47
2019-03-09T12:25:13.659Z,34.27
2019-03-09T12:26:12.650Z,33.48
2019-03-09T12:27:12.691Z,38.72
2019-03-09T12:28:12.633Z,38.70
2019-03-09T12:29:12.641Z,41.35
2019-03-09T12:30:12.606Z,43.93
2019-03-09T12:31:12.601Z,43.12
2019-03-09T12:32:12.615Z,47.03
2019-03-09T12:33:12.575Z,49.04
2019-03-09T12:34:12.566Z,51.65
2019-03-09T12:35:12.552Z,52.48
2019-03-09T12:36:12.546Z,52.79
2019-03-09T12:37:12.533Z,52.89
2019-03-09T12:38:12.566Z,53.06
2019-03-09T12:39:12.513Z,52.15
2019-03-09T12:40:12.503Z,52.79
2019-03-09T12:41:12.490Z,53.91
2019-03-09T12:42:12.485Z,54.54
2019-03-09T12:43:12.490Z,55.05
2019-03-09T12:44:12.459Z,54.87
2019-03-09T12:45:12.459Z,55.48
2019-03-09T12:46:12.435Z,55.48
2019-03-09T12:47:12.425Z,55.78
2019-03-09T12:48:12.433Z,56.09
2019-03-09T12:49:12.401Z,55.71
2019-03-09T12:50:12.392Z,55.99
2019-03-09T12:51:12.382Z,56.09
2019-03-09T12:52:12.401Z,52.41
2019-03-09T12:53:14.136Z,47.02
2019-03-09T12:54:12.366Z,47.34
2019-03-09T12:55:12.336Z,44.63
2019-03-09T12:56:12.328Z,46.29
2019-03-09T12:57:12.321Z,43.38
2019-03-09T12:58:12.327Z,44.65
2019-03-09T12:59:12.305Z,46.49
2019-03-09T13:00:12.320Z,45.30
2019-03-09T13:01:12.280Z,47.81
2019-03-09T13:02:12.261Z,42.92